Time;durP1;ratioP1;P1;durP2;ratioP2;P2;SDS_P1;SDS_P2;PMS_P1;PMS_P2;Temp;Humidity;BMP_temperature;BMP_pressure;BME280_temperature;BME280_humidity;BME280_pressure;Samples;Min_cycle;Max_cycle;Signal;HPM_P1;HPM_P2
2021/09/22 00:00:20;;;;;;;4.85;3.53;;;;;;;;;;4955946;28;20050;-75
2021/09/22 00:02:46;;;;;;;5.05;3.40;;;;;;;;;;4955373;28;20114;-75
2021/09/22 00:05:12;;;;;;;9.52;3.35;;;;;;;;;;4956036;28;20127;-75
2021/09/22 00:07:39;;;;;;;11.25;4.10;;;;;;;;;;4956076;28;20047;-75
2021/09/22 00:10:11;;;;;;;5.28;3.20;;;;;;;;;;4956168;28;20063;-76
2021/09/22 00:12:37;;;;;;;5.55;4.03;;;;;;;;;;4955872;28;20086;-76
2021/09/22 00:15:05;;;;;;;7.00;4.13;;;;;;;;;;4954797;29;20043;-76
2021/09/22 00:17:30;;;;;;;7.95;3.70;;;;;;;;;;4955361;28;20041;-76
2021/09/22 00:19:55;;;;;;;5.15;4.00;;;;;;;;;;4954838;28;20031;-75
2021/09/22 00:22:21;;;;;;;11.10;4.13;;;;;;;;;;4955996;29;20608;-75
2021/09/22 00:24:46;;;;;;;6.35;3.55;;;;;;;;;;4954458;29;20035;-75
2021/09/22 00:27:12;;;;;;;7.40;3.50;;;;;;;;;;4955825;28;20039;-75
2021/09/22 00:29:37;;;;;;;9.35;3.47;;;;;;;;;;4938113;28;20126;-75
2021/09/22 00:32:03;;;;;;;8.70;3.10;;;;;;;;;;4955693;28;20497;-75
2021/09/22 00:34:28;;;;;;;4.30;3.22;;;;;;;;;;4955809;28;20558;-75
2021/09/22 00:36:53;;;;;;;7.72;4.20;;;;;;;;;;4955627;28;20052;-75
2021/09/22 00:39:19;;;;;;;7.70;3.70;;;;;;;;;;4954584;28;20069;-75
2021/09/22 00:41:45;;;;;;;7.20;3.47;;;;;;;;;;4955331;28;20062;-75
2021/09/22 00:44:11;;;;;;;9.75;4.03;;;;;;;;;;4955383;28;20027;-75
2021/09/22 00:46:36;;;;;;;6.07;3.65;;;;;;;;;;4938392;29;20031;-75
2021/09/22 00:49:01;;;;;;;5.20;3.42;;;;;;;;;;4955621;29;20034;-75
2021/09/22 00:51:34;;;;;;;7.95;3.58;;;;;;;;;;4954178;28;20063;-75
2021/09/22 00:54:00;;;;;;;10.13;3.92;;;;;;;;;;4954554;29;20451;-75
2021/09/22 00:56:25;;;;;;;6.43;3.90;;;;;;;;;;4954007;29;20393;-75
2021/09/22 00:58:52;;;;;;;5.57;3.10;;;;;;;;;;4954303;29;20114;-75
2021/09/22 01:01:18;;;;;;;6.63;3.67;;;;;;;;;;4953641;28;20043;-75
2021/09/22 01:03:43;;;;;;;5.50;3.40;;;;;;;;;;4953443;29;20035;-75
2021/09/22 01:06:09;;;;;;;10.10;3.40;;;;;;;;;;4954013;28;20046;-76
2021/09/22 01:08:35;;;;;;;6.70;3.50;;;;;;;;;;4954939;28;20035;-75
2021/09/22 01:11:00;;;;;;;5.90;3.70;;;;;;;;;;4954802;28;20038;-75
2021/09/22 01:13:26;;;;;;;5.15;3.55;;;;;;;;;;4953359;28;20117;-76
2021/09/22 01:15:52;;;;;;;6.90;3.70;;;;;;;;;;4953741;29;20129;-76
2021/09/22 01:18:23;;;;;;;6.95;3.70;;;;;;;;;;4953763;29;20035;-75
2021/09/22 01:20:56;;;;;;;4.97;3.30;;;;;;;;;;4953893;28;20074;-76
2021/09/22 01:23:24;;;;;;;4.50;3.58;;;;;;;;;;4953665;29;20505;-75
2021/09/22 01:25:53;;;;;;;7.43;3.70;;;;;;;;;;4953490;29;20027;-75
2021/09/22 01:28:23;;;;;;;7.55;4.65;;;;;;;;;;4953966;29;20520;-75
2021/09/22 01:30:50;;;;;;;9.68;4.03;;;;;;;;;;4953598;28;20086;-75
2021/09/22 01:33:18;;;;;;;9.52;4.68;;;;;;;;;;4953137;29;20094;-75
2021/09/22 01:35:51;;;;;;;6.47;3.83;;;;;;;;;;4953883;29;20027;-76
2021/09/22 01:38:27;;;;;;;8.25;4.13;;;;;;;;;;4953142;29;20045;-76
2021/09/22 01:41:13;;;;;;;7.85;4.40;;;;;;;;;;4953201;28;20053;-75
2021/09/22 01:43:50;;;;;;;6.30;3.75;;;;;;;;;;4953387;29;20405;-76
2021/09/22 01:46:20;;;;;;;7.07;4.28;;;;;;;;;;4953413;29;20082;-76
2021/09/22 01:48:47;;;;;;;7.30;3.42;;;;;;;;;;4952677;28;20049;-76
2021/09/22 01:51:13;;;;;;;9.30;3.80;;;;;;;;;;4937639;29;20129;-75
2021/09/22 01:53:57;;;;;;;5.20;3.45;;;;;;;;;;4953390;28;20027;-75
2021/09/22 01:56:23;;;;;;;6.15;4.40;;;;;;;;;;4957200;29;20046;-75
2021/09/22 01:58:48;;;;;;;10.05;4.30;;;;;;;;;;4958507;28;20019;-75
2021/09/22 02:01:20;;;;;;;7.13;3.70;;;;;;;;;;4957372;28;20118;-75
2021/09/22 02:03:51;;;;;;;8.13;3.85;;;;;;;;;;4957367;28;20384;-75
2021/09/22 02:06:24;;;;;;;6.38;3.90;;;;;;;;;;4957136;29;20039;-76
2021/09/22 02:08:49;;;;;;;10.07;3.45;;;;;;;;;;4957058;29;20035;-75
2021/09/22 02:11:29;;;;;;;9.32;4.20;;;;;;;;;;4956899;28;20045;-75
2021/09/22 02:13:55;;;;;;;5.47;3.63;;;;;;;;;;4956435;28;20500;-76
2021/09/22 02:16:26;;;;;;;5.50;3.75;;;;;;;;;;4942196;29;20038;-76
2021/09/22 02:19:05;;;;;;;7.65;4.40;;;;;;;;;;4957103;29;20058;-76
2021/09/22 02:21:33;;;;;;;5.38;4.18;;;;;;;;;;4956736;28;20043;-76
2021/09/22 02:24:04;;;;;;;6.75;3.75;;;;;;;;;;4956902;29;20130;-76
2021/09/22 02:26:30;;;;;;;7.80;4.43;;;;;;;;;;4958459;28;20134;-77
2021/09/22 02:28:56;;;;;;;5.05;3.97;;;;;;;;;;4956831;29;20126;-76
2021/09/22 02:31:21;;;;;;;9.00;3.88;;;;;;;;;;4956428;28;20461;-76
2021/09/22 02:33:57;;;;;;;7.40;4.20;;;;;;;;;;4956604;29;20135;-76
2021/09/22 02:36:23;;;;;;;5.90;3.95;;;;;;;;;;4956465;29;20078;-76
2021/09/22 02:38:58;;;;;;;6.80;3.67;;;;;;;;;;4953243;29;20042;-76
2021/09/22 02:41:26;;;;;;;5.47;3.38;;;;;;;;;;4937333;29;20059;-76
2021/09/22 02:43:51;;;;;;;7.65;4.00;;;;;;;;;;4937408;29;20612;-76
2021/09/22 02:46:20;;;;;;;8.50;3.63;;;;;;;;;;4937222;29;20032;-76
2021/09/22 02:48:56;;;;;;;7.78;3.85;;;;;;;;;;4937562;29;20405;-76
2021/09/22 02:51:21;;;;;;;5.78;3.50;;;;;;;;;;4937957;29;20032;-76
2021/09/22 02:53:47;;;;;;;5.85;3.55;;;;;;;;;;4938210;29;20072;-76
2021/09/22 02:56:13;;;;;;;10.75;3.97;;;;;;;;;;4937160;29;20490;-76
2021/09/22 02:58:40;;;;;;;7.68;3.85;;;;;;;;;;4937244;29;20469;-76
2021/09/22 03:01:07;;;;;;;6.35;3.80;;;;;;;;;;4937169;29;20053;-76
2021/09/22 03:03:35;;;;;;;10.55;3.83;;;;;;;;;;4936935;29;20118;-76
2021/09/22 03:06:01;;;;;;;7.13;3.83;;;;;;;;;;4937012;29;20602;-76
2021/09/22 03:08:26;;;;;;;6.38;3.58;;;;;;;;;;4952250;28;20113;-76
2021/09/22 03:10:52;;;;;;;6.97;3.88;;;;;;;;;;4939723;29;20030;-76
2021/09/22 03:13:17;;;;;;;6.18;3.55;;;;;;;;;;4955516;28;20485;-76
2021/09/22 03:15:43;;;;;;;12.15;4.13;;;;;;;;;;4956044;29;20511;-77
2021/09/22 03:18:09;;;;;;;5.35;3.60;;;;;;;;;;4956059;28;20042;-77
2021/09/22 03:20:34;;;;;;;10.70;4.00;;;;;;;;;;4939904;29;20031;-77
2021/09/22 03:23:00;;;;;;;6.00;4.00;;;;;;;;;;4955825;28;20045;-76
2021/09/22 03:25:37;;;;;;;5.97;3.42;;;;;;;;;;4955678;29;20042;-77
2021/09/22 03:28:03;;;;;;;7.35;3.58;;;;;;;;;;4955846;28;20035;-77
2021/09/22 03:30:29;;;;;;;8.85;3.97;;;;;;;;;;4955804;28;20043;-77
2021/09/22 03:33:10;;;;;;;6.93;3.97;;;;;;;;;;4955609;29;20047;-77
2021/09/22 03:35:36;;;;;;;6.60;3.38;;;;;;;;;;4955618;29;20042;-77
2021/09/22 03:38:04;;;;;;;5.93;3.45;;;;;;;;;;4956583;28;20039;-77
2021/09/22 03:40:30;;;;;;;6.07;3.67;;;;;;;;;;4955189;28;20059;-77
2021/09/22 03:42:56;;;;;;;6.40;3.78;;;;;;;;;;4955599;28;20117;-77
2021/09/22 03:45:22;;;;;;;5.95;3.25;;;;;;;;;;4956012;28;20370;-76
2021/09/22 03:47:48;;;;;;;4.70;3.35;;;;;;;;;;4955470;29;20027;-76
2021/09/22 03:50:14;;;;;;;6.82;3.80;;;;;;;;;;4955340;28;20039;-77
2021/09/22 03:53:08;;;;;;;8.60;3.60;;;;;;;;;;4948994;28;20061;-76
2021/09/22 03:55:36;;;;;;;8.40;3.63;;;;;;;;;;4939637;29;20155;-76
2021/09/22 03:58:01;;;;;;;6.10;3.53;;;;;;;;;;4939114;29;20035;-77
2021/09/22 04:00:27;;;;;;;5.50;3.60;;;;;;;;;;4955007;28;20031;-76
2021/09/22 04:02:53;;;;;;;4.43;3.45;;;;;;;;;;4939260;29;20039;-77
2021/09/22 04:05:19;;;;;;;8.50;4.53;;;;;;;;;;4954960;28;20401;-77
2021/09/22 04:07:45;;;;;;;4.82;3.22;;;;;;;;;;4955135;29;20027;-76
2021/09/22 04:10:11;;;;;;;6.78;3.60;;;;;;;;;;4954548;28;20452;-76
2021/09/22 04:12:36;;;;;;;8.80;3.95;;;;;;;;;;4939063;29;20046;-76
2021/09/22 04:15:04;;;;;;;7.22;4.00;;;;;;;;;;4954887;29;20070;-76
2021/09/22 04:17:30;;;;;;;6.10;3.55;;;;;;;;;;4938201;29;20418;-76
2021/09/22 04:19:56;;;;;;;7.60;3.90;;;;;;;;;;4954821;28;20429;-77
2021/09/22 04:22:22;;;;;;;6.65;3.63;;;;;;;;;;4954787;29;20489;-77
2021/09/22 04:24:47;;;;;;;3.97;3.55;;;;;;;;;;4939078;29;20082;-76
2021/09/22 04:27:13;;;;;;;7.10;3.22;;;;;;;;;;4938812;29;20122;-76
2021/09/22 04:29:54;;;;;;;8.00;3.60;;;;;;;;;;4954630;28;20408;-76
2021/09/22 04:32:38;;;;;;;5.68;3.17;;;;;;;;;;4955363;29;20054;-76
2021/09/22 04:35:22;;;;;;;5.75;3.70;;;;;;;;;;4955716;29;20085;-77
2021/09/22 04:38:07;;;;;;;7.43;4.13;;;;;;;;;;4954580;29;20054;-76
2021/09/22 04:40:51;;;;;;;5.40;3.45;;;;;;;;;;4955032;28;20401;-77
2021/09/22 04:43:35;;;;;;;6.05;4.13;;;;;;;;;;4955555;29;20125;-76
2021/09/22 04:46:19;;;;;;;7.22;4.10;;;;;;;;;;4955505;29;20151;-76
2021/09/22 04:49:04;;;;;;;7.13;3.83;;;;;;;;;;4955323;29;20098;-77
2021/09/22 04:51:48;;;;;;;6.18;3.90;;;;;;;;;;4955107;28;20491;-76
2021/09/22 04:54:52;;;;;;;8.02;4.30;;;;;;;;;;4914957;29;20059;-76
2021/09/22 04:57:36;;;;;;;4.72;3.47;;;;;;;;;;4915184;29;20107;-76
2021/09/22 05:00:20;;;;;;;8.48;4.00;;;;;;;;;;4943625;28;20512;-76
2021/09/22 05:03:04;;;;;;;7.20;3.83;;;;;;;;;;4954889;29;20059;-76
2021/09/22 05:05:48;;;;;;;5.40;4.13;;;;;;;;;;4955517;29;20500;-76
2021/09/22 05:08:31;;;;;;;12.25;3.95;;;;;;;;;;4954508;28;20090;-76
2021/09/22 05:11:15;;;;;;;4.38;3.67;;;;;;;;;;4955023;28;20050;-77
2021/09/22 05:13:59;;;;;;;6.60;4.20;;;;;;;;;;4955170;28;20091;-76
2021/09/22 05:16:43;;;;;;;6.63;3.78;;;;;;;;;;4955259;28;20058;-76
2021/09/22 05:19:27;;;;;;;5.93;4.20;;;;;;;;;;4955092;28;20417;-76
2021/09/22 05:22:15;;;;;;;5.22;4.18;;;;;;;;;;4955023;28;20050;-76
2021/09/22 05:24:59;;;;;;;9.65;3.70;;;;;;;;;;4954155;29;20374;-76
2021/09/22 05:27:44;;;;;;;7.50;4.93;;;;;;;;;;4955047;29;20094;-76
2021/09/22 05:30:27;;;;;;;6.93;4.68;;;;;;;;;;4954950;28;20086;-76
2021/09/22 05:33:11;;;;;;;9.35;4.43;;;;;;;;;;4954744;28;20066;-76
2021/09/22 05:35:55;;;;;;;6.97;4.80;;;;;;;;;;4955173;29;20102;-76
2021/09/22 05:38:42;;;;;;;6.97;4.10;;;;;;;;;;4954149;28;20520;-76
2021/09/22 05:41:26;;;;;;;5.97;3.92;;;;;;;;;;4954907;28;20094;-76
2021/09/22 05:44:10;;;;;;;9.43;4.18;;;;;;;;;;4953915;29;20047;-76
2021/09/22 05:46:54;;;;;;;5.03;3.90;;;;;;;;;;4954601;28;20098;-76
2021/09/22 05:49:38;;;;;;;5.78;3.42;;;;;;;;;;4951969;28;20082;-76
2021/09/22 05:52:22;;;;;;;5.80;3.88;;;;;;;;;;4952271;28;20473;-76
2021/09/22 05:55:07;;;;;;;6.70;4.43;;;;;;;;;;4954678;28;20054;-76
2021/09/22 05:57:51;;;;;;;14.00;4.55;;;;;;;;;;4954944;29;20094;-76
2021/09/22 06:00:35;;;;;;;11.15;4.50;;;;;;;;;;4954637;28;20586;-76
2021/09/22 06:03:20;;;;;;;7.50;4.32;;;;;;;;;;4953750;29;20122;-76
2021/09/22 06:06:04;;;;;;;11.63;4.93;;;;;;;;;;4954713;28;20058;-76
2021/09/22 06:08:52;;;;;;;10.60;4.65;;;;;;;;;;4955969;29;20043;-78
2021/09/22 06:11:24;;;;;;;19.42;4.50;;;;;;;;;;4954953;28;20524;-77
2021/09/22 06:13:56;;;;;;;9.18;4.05;;;;;;;;;;4955388;28;20042;-76
2021/09/22 06:16:23;;;;;;;6.88;4.05;;;;;;;;;;4954333;28;20425;-76
2021/09/22 06:18:49;;;;;;;5.93;3.72;;;;;;;;;;4954654;28;20474;-75
2021/09/22 06:21:15;;;;;;;7.22;4.45;;;;;;;;;;4953490;28;20118;-77
2021/09/22 06:23:41;;;;;;;9.02;4.90;;;;;;;;;;4954611;28;20126;-74
2021/09/22 06:26:07;;;;;;;7.95;5.03;;;;;;;;;;4954357;28;20042;-76
2021/09/22 06:28:33;;;;;;;8.63;4.85;;;;;;;;;;4953302;29;20039;-76
2021/09/22 06:30:59;;;;;;;5.88;4.75;;;;;;;;;;4954461;28;20037;-76
2021/09/22 06:33:24;;;;;;;6.85;4.43;;;;;;;;;;4954376;28;20134;-77
2021/09/22 06:35:59;;;;;;;9.25;4.70;;;;;;;;;;4953332;29;20036;-76
2021/09/22 06:38:28;;;;;;;10.60;5.30;;;;;;;;;;4952446;28;20535;-76
2021/09/22 06:40:58;;;;;;;5.88;4.40;;;;;;;;;;4954804;28;20112;-77
2021/09/22 06:43:26;;;;;;;8.80;5.28;;;;;;;;;;4956667;29;20031;-75
2021/09/22 06:45:51;;;;;;;9.10;4.57;;;;;;;;;;4957614;28;20039;-76
2021/09/22 06:48:17;;;;;;;6.18;4.22;;;;;;;;;;4957618;28;20086;-75
2021/09/22 06:50:46;;;;;;;8.25;4.32;;;;;;;;;;4955808;28;20094;-75
2021/09/22 06:53:13;;;;;;;5.68;4.35;;;;;;;;;;4956262;29;20031;-76
2021/09/22 06:55:39;;;;;;;8.43;4.43;;;;;;;;;;4957724;29;20038;-76
2021/09/22 06:58:05;;;;;;;6.93;4.47;;;;;;;;;;4956972;28;20087;-76
2021/09/22 07:00:33;;;;;;;10.85;5.57;;;;;;;;;;4957689;28;20039;-76
2021/09/22 07:02:58;;;;;;;6.90;4.90;;;;;;;;;;4957519;28;20527;-76
2021/09/22 07:05:24;;;;;;;7.15;4.60;;;;;;;;;;4957152;28;20175;-76
2021/09/22 07:07:49;;;;;;;9.77;5.28;;;;;;;;;;4957167;28;20397;-77
2021/09/22 07:10:16;;;;;;;8.27;5.68;;;;;;;;;;4957846;28;20035;-81
2021/09/22 07:12:42;;;;;;;15.88;6.30;;;;;;;;;;4956664;28;20648;-77
2021/09/22 07:15:08;;;;;;;15.93;5.72;;;;;;;;;;4957189;28;20054;-76
2021/09/22 07:17:34;;;;;;;11.80;6.00;;;;;;;;;;4955635;28;20058;-78
2021/09/22 07:19:59;;;;;;;12.27;7.00;;;;;;;;;;4956704;28;20105;-77
2021/09/22 07:22:25;;;;;;;14.18;10.23;;;;;;;;;;4958148;28;20438;-76
2021/09/22 07:24:50;;;;;;;11.75;8.00;;;;;;;;;;4957095;28;20556;-76
2021/09/22 07:27:16;;;;;;;14.30;8.32;;;;;;;;;;4956827;28;20045;-76
2021/09/22 07:29:42;;;;;;;11.45;7.32;;;;;;;;;;4956041;28;20035;-76
2021/09/22 07:32:08;;;;;;;11.18;7.15;;;;;;;;;;4957027;28;20031;-77
2021/09/22 07:34:36;;;;;;;10.90;7.45;;;;;;;;;;4956756;28;20057;-76
2021/09/22 07:37:07;;;;;;;11.52;7.38;;;;;;;;;;4957087;28;20389;-77
2021/09/22 07:39:37;;;;;;;11.38;7.47;;;;;;;;;;4956574;28;20498;-76
2021/09/22 07:42:03;;;;;;;13.65;7.47;;;;;;;;;;4956014;29;20039;-76
2021/09/22 07:44:28;;;;;;;13.43;8.73;;;;;;;;;;4956597;28;20035;-77
2021/09/22 07:46:53;;;;;;;17.85;9.85;;;;;;;;;;4957479;28;20043;-76
2021/09/22 07:49:19;;;;;;;14.43;9.45;;;;;;;;;;4957114;28;20035;-77
2021/09/22 07:51:44;;;;;;;11.90;8.98;;;;;;;;;;4955733;28;20050;-77
2021/09/22 07:54:10;;;;;;;11.25;8.07;;;;;;;;;;4955882;28;20035;-76
2021/09/22 07:56:35;;;;;;;19.65;9.30;;;;;;;;;;4954652;28;20122;-77
2021/09/22 07:59:01;;;;;;;15.85;10.02;;;;;;;;;;4959214;28;20042;-79
2021/09/22 08:01:26;;;;;;;13.88;9.93;;;;;;;;;;4959756;28;20073;-80
2021/09/22 08:03:51;;;;;;;15.82;10.57;;;;;;;;;;4959680;29;20046;-78
2021/09/22 08:06:17;;;;;;;16.15;9.93;;;;;;;;;;4955679;28;20041;-80
2021/09/22 08:08:42;;;;;;;12.35;9.27;;;;;;;;;;4951186;28;20022;-80
2021/09/22 08:11:08;;;;;;;15.70;9.48;;;;;;;;;;4950968;29;20062;-80
2021/09/22 08:13:33;;;;;;;17.60;10.82;;;;;;;;;;4955639;28;20043;-78
2021/09/22 08:15:58;;;;;;;17.35;11.70;;;;;;;;;;4949843;29;20410;-81
2021/09/22 08:18:24;;;;;;;18.25;12.40;;;;;;;;;;4947081;29;20071;-79
2021/09/22 08:20:49;;;;;;;21.10;12.15;;;;;;;;;;4940295;29;20032;-80
2021/09/22 08:23:15;;;;;;;18.15;11.68;;;;;;;;;;4939753;29;20062;-80
2021/09/22 08:25:40;;;;;;;15.20;10.98;;;;;;;;;;4941750;29;20390;-78
2021/09/22 08:28:06;;;;;;;17.67;11.88;;;;;;;;;;4951002;29;20126;-77
2021/09/22 08:30:31;;;;;;;20.17;12.68;;;;;;;;;;4957193;29;20040;-77
2021/09/22 08:32:56;;;;;;;19.58;11.82;;;;;;;;;;4958880;28;20074;-78
2021/09/22 08:35:22;;;;;;;15.00;10.05;;;;;;;;;;4957005;28;20477;-77
2021/09/22 08:37:47;;;;;;;20.35;12.88;;;;;;;;;;4957316;29;20054;-77
2021/09/22 08:40:14;;;;;;;16.65;11.27;;;;;;;;;;4955652;28;20043;-79
2021/09/22 08:42:40;;;;;;;17.05;10.02;;;;;;;;;;4959580;28;20061;-77
2021/09/22 08:45:07;;;;;;;16.88;10.93;;;;;;;;;;4957173;28;20140;-80
2021/09/22 08:47:33;;;;;;;12.70;8.90;;;;;;;;;;4957880;28;20031;-78
2021/09/22 08:49:58;;;;;;;11.98;8.48;;;;;;;;;;4956095;28;20082;-79
2021/09/22 08:52:24;;;;;;;14.18;9.63;;;;;;;;;;4956723;28;20059;-79
2021/09/22 08:54:50;;;;;;;16.38;8.70;;;;;;;;;;4963052;28;20042;-78
2021/09/22 08:57:16;;;;;;;12.40;7.65;;;;;;;;;;4959940;28;20047;-78
2021/09/22 08:59:41;;;;;;;15.18;8.02;;;;;;;;;;4976894;28;20117;-79
2021/09/22 09:02:12;;;;;;;13.13;8.60;;;;;;;;;;4967468;28;20613;-79
2021/09/22 09:04:40;;;;;;;12.32;8.38;;;;;;;;;;4959461;28;20027;-78
2021/09/22 09:07:06;;;;;;;13.48;8.20;;;;;;;;;;4961893;28;20039;-79
2021/09/22 09:09:36;;;;;;;14.30;8.00;;;;;;;;;;4966115;28;20035;-78
2021/09/22 09:12:17;;;;;;;11.77;6.45;;;;;;;;;;4976415;28;20043;-78
2021/09/22 09:14:56;;;;;;;14.05;7.10;;;;;;;;;;4962855;28;20055;-79
2021/09/22 09:17:40;;;;;;;13.10;8.20;;;;;;;;;;4956181;28;20054;-80
2021/09/22 09:20:25;;;;;;;13.23;7.03;;;;;;;;;;4961663;28;20086;-81
2021/09/22 09:23:00;;;;;;;8.93;7.28;;;;;;;;;;4941168;28;20474;-80
2021/09/22 09:25:27;;;;;;;13.90;7.03;;;;;;;;;;4965308;28;20507;-80
2021/09/22 09:27:53;;;;;;;13.80;7.57;;;;;;;;;;4971978;28;20058;-80
2021/09/22 09:30:24;;;;;;;14.43;7.55;;;;;;;;;;4975109;28;20039;-80
2021/09/22 09:32:51;;;;;;;9.98;6.82;;;;;;;;;;4963109;28;20046;-80
2021/09/22 09:35:23;;;;;;;13.70;6.28;;;;;;;;;;4970784;28;20079;-80
2021/09/22 09:37:53;;;;;;;13.45;6.35;;;;;;;;;;4965886;28;20101;-80
2021/09/22 09:40:29;;;;;;;13.80;7.63;;;;;;;;;;4961111;28;20102;-80
2021/09/22 09:43:08;;;;;;;;;;;;;;;;;;4955565;28;20509;-80
2021/09/22 09:45:45;;;;;;;9.90;7.38;;;;;;;;;;4964626;28;19949;-80
2021/09/22 09:48:22;;;;;;;13.88;7.82;;;;;;;;;;4953710;28;20044;-77
2021/09/22 09:50:52;;;;;;;23.60;8.00;;;;;;;;;;4960934;28;20093;-77
2021/09/22 09:53:32;;;;;;;12.77;6.60;;;;;;;;;;4977826;28;20047;-81
2021/09/22 09:56:00;;;;;;;10.57;6.60;;;;;;;;;;4976112;28;20057;-77
2021/09/22 09:58:43;;;;;;;14.70;7.43;;;;;;;;;;4974172;28;20512;-76
2021/09/22 10:01:08;;;;;;;12.68;7.40;;;;;;;;;;4972651;28;20104;-77
2021/09/22 10:03:34;;;;;;;13.73;6.57;;;;;;;;;;4956509;28;20496;-77
2021/09/22 10:05:59;;;;;;;11.27;6.82;;;;;;;;;;4977486;28;20374;-81
2021/09/22 10:08:26;;;;;;;15.35;6.20;;;;;;;;;;4950900;29;20484;-82
2021/09/22 10:10:55;;;;;;;17.27;8.00;;;;;;;;;;4958178;28;20035;-79
2021/09/22 10:13:21;;;;;;;9.02;5.50;;;;;;;;;;4958108;28;20043;-79
2021/09/22 10:15:48;;;;;;;12.40;5.72;;;;;;;;;;4959011;28;20102;-78
2021/09/22 10:18:16;;;;;;;13.48;7.25;;;;;;;;;;4957817;28;20043;-78
2021/09/22 10:20:43;;;;;;;13.75;7.65;;;;;;;;;;4959383;28;20039;-77
2021/09/22 10:23:10;;;;;;;10.38;7.30;;;;;;;;;;4959739;28;20097;-78
2021/09/22 10:25:38;;;;;;;17.00;10.00;;;;;;;;;;4959989;29;20127;-78
2021/09/22 10:28:04;;;;;;;13.48;8.25;;;;;;;;;;4957084;29;20078;-78
2021/09/22 10:30:38;;;;;;;14.45;8.32;;;;;;;;;;4958675;28;20035;-77
2021/09/22 10:33:05;;;;;;;13.57;7.60;;;;;;;;;;4958969;28;20059;-78
2021/09/22 10:35:35;;;;;;;15.25;7.80;;;;;;;;;;4956456;28;20114;-78
2021/09/22 10:38:19;;;;;;;13.95;8.15;;;;;;;;;;4957884;28;20047;-78
2021/09/22 10:40:56;;;;;;;16.25;9.13;;;;;;;;;;4940279;29;20378;-78
2021/09/22 10:43:28;;;;;;;11.43;7.53;;;;;;;;;;4957078;28;20043;-78
2021/09/22 10:46:05;;;;;;;16.90;9.90;;;;;;;;;;4957704;28;20058;-77
2021/09/22 10:48:33;;;;;;;14.95;9.25;;;;;;;;;;4959598;28;20031;-77
2021/09/22 10:51:04;;;;;;;17.17;10.05;;;;;;;;;;4957600;29;20038;-78
2021/09/22 10:53:32;;;;;;;20.08;9.70;;;;;;;;;;4960356;28;20031;-78
2021/09/22 10:56:22;;;;;;;12.15;8.70;;;;;;;;;;4961953;28;20062;-78
2021/09/22 10:58:54;;;;;;;14.48;8.82;;;;;;;;;;4959834;28;20042;-82
2021/09/22 11:01:35;;;;;;;16.75;8.95;;;;;;;;;;4966000;28;20134;-78
2021/09/22 11:04:05;;;;;;;13.20;7.97;;;;;;;;;;4965659;29;20054;-80
2021/09/22 11:06:46;;;;;;;13.30;8.40;;;;;;;;;;4963036;29;20611;-77
2021/09/22 11:09:17;;;;;;;12.45;8.15;;;;;;;;;;4956229;29;20043;-77
2021/09/22 11:11:55;;;;;;;15.02;9.38;;;;;;;;;;4960817;28;20027;-77
2021/09/22 11:14:27;;;;;;;13.30;9.23;;;;;;;;;;4960498;28;20035;-78
2021/09/22 11:16:57;;;;;;;15.13;9.50;;;;;;;;;;4961581;29;20502;-78
2021/09/22 11:19:23;;;;;;;13.00;8.20;;;;;;;;;;4958210;29;20098;-78
2021/09/22 11:21:49;;;;;;;17.00;7.80;;;;;;;;;;4961077;28;20043;-78
2021/09/22 11:24:21;;;;;;;9.85;6.47;;;;;;;;;;4961922;28;20370;-79
2021/09/22 11:26:57;;;;;;;11.77;6.80;;;;;;;;;;4955413;28;20385;-78
2021/09/22 11:29:40;;;;;;;11.07;6.47;;;;;;;;;;4955474;29;20039;-78
2021/09/22 11:32:27;;;;;;;11.75;6.10;;;;;;;;;;4963238;28;20031;-78
2021/09/22 11:35:03;;;;;;;7.75;5.45;;;;;;;;;;4960557;28;20074;-78
2021/09/22 11:37:36;;;;;;;8.60;5.28;;;;;;;;;;4960770;28;20062;-78
2021/09/22 11:40:12;;;;;;;7.18;4.93;;;;;;;;;;4962710;28;20039;-78
2021/09/22 11:42:41;;;;;;;10.40;5.80;;;;;;;;;;4962049;28;20425;-78
2021/09/22 11:45:08;;;;;;;10.55;6.35;;;;;;;;;;4960222;28;20039;-78
2021/09/22 11:47:33;;;;;;;12.15;5.90;;;;;;;;;;4959273;28;20028;-78
2021/09/22 11:49:58;;;;;;;10.98;5.65;;;;;;;;;;4956914;29;20055;-78
2021/09/22 11:52:26;;;;;;;8.30;5.53;;;;;;;;;;4961297;29;20039;-78
2021/09/22 11:54:56;;;;;;;14.68;5.35;;;;;;;;;;4961147;29;20086;-78
2021/09/22 11:57:22;;;;;;;9.75;5.97;;;;;;;;;;4956302;28;20046;-79
2021/09/22 11:59:48;;;;;;;14.52;7.28;;;;;;;;;;4961441;28;20460;-79
2021/09/22 12:02:15;;;;;;;12.60;5.85;;;;;;;;;;4962800;28;20045;-79
2021/09/22 12:04:44;;;;;;;115.70;63.13;;;;;;;;;;4961773;29;20031;-79
2021/09/22 12:07:10;;;;;;;24.00;12.63;;;;;;;;;;4962218;28;20047;-79
2021/09/22 12:09:39;;;;;;;20.98;13.50;;;;;;;;;;4960919;28;20027;-79
2021/09/22 12:12:13;;;;;;;10.98;6.32;;;;;;;;;;4961325;28;20417;-77
2021/09/22 12:14:45;;;;;;;11.07;6.25;;;;;;;;;;4958032;28;20113;-79
2021/09/22 12:17:13;;;;;;;17.60;6.20;;;;;;;;;;4963189;29;20127;-79
2021/09/22 12:19:40;;;;;;;11.05;5.63;;;;;;;;;;4961754;28;20043;-79
2021/09/22 12:22:07;;;;;;;9.23;4.68;;;;;;;;;;4962668;28;20530;-79
2021/09/22 12:24:34;;;;;;;12.77;6.50;;;;;;;;;;4963706;29;20047;-79
2021/09/22 12:27:01;;;;;;;11.23;5.63;;;;;;;;;;4974992;28;20042;-79
2021/09/22 12:29:27;;;;;;;16.35;7.97;;;;;;;;;;4969871;28;20031;-79
2021/09/22 12:31:53;;;;;;;13.48;6.72;;;;;;;;;;4968634;28;20516;-79
2021/09/22 12:34:26;;;;;;;12.00;6.18;;;;;;;;;;4967534;28;20489;-79
2021/09/22 12:36:54;;;;;;;12.40;6.53;;;;;;;;;;4963326;28;20039;-79
2021/09/22 12:39:23;;;;;;;13.15;7.20;;;;;;;;;;4965823;28;20047;-79
2021/09/22 12:41:59;;;;;;;12.20;6.30;;;;;;;;;;4967846;28;20425;-79
2021/09/22 12:44:24;;;;;;;12.70;7.07;;;;;;;;;;4973109;29;20587;-79
2021/09/22 12:46:50;;;;;;;19.00;6.70;;;;;;;;;;4978051;28;20043;-78
2021/09/22 12:49:21;;;;;;;14.82;6.25;;;;;;;;;;4969451;28;20043;-79
2021/09/22 12:51:48;;;;;;;10.57;6.30;;;;;;;;;;4965571;28;20497;-79
2021/09/22 12:54:15;;;;;;;12.85;6.95;;;;;;;;;;4966866;28;20043;-79
2021/09/22 12:56:41;;;;;;;12.35;7.40;;;;;;;;;;4967594;28;20023;-79
2021/09/22 12:59:25;;;;;;;17.77;8.32;;;;;;;;;;4968313;28;20047;-79
2021/09/22 13:01:52;;;;;;;13.52;7.07;;;;;;;;;;4967455;28;20414;-78
2021/09/22 13:04:24;;;;;;;12.18;6.03;;;;;;;;;;4963525;29;20039;-79
2021/09/22 13:06:59;;;;;;;9.38;6.28;;;;;;;;;;4964196;28;20089;-79
2021/09/22 13:09:32;;;;;;;12.75;6.45;;;;;;;;;;4965386;28;20043;-79
2021/09/22 13:11:58;;;;;;;10.50;5.88;;;;;;;;;;4968561;28;20031;-80
2021/09/22 13:14:23;;;;;;;15.27;6.80;;;;;;;;;;4962638;29;20788;-78
2021/09/22 13:16:57;;;;;;;17.40;7.05;;;;;;;;;;4964113;29;20110;-79
2021/09/22 13:19:27;;;;;;;12.38;7.47;;;;;;;;;;4965041;28;20043;-79
2021/09/22 13:21:56;;;;;;;10.95;5.70;;;;;;;;;;4965296;28;20046;-79
2021/09/22 13:24:23;;;;;;;15.40;6.38;;;;;;;;;;4964258;28;20142;-79
2021/09/22 13:26:51;;;;;;;14.20;6.18;;;;;;;;;;4964842;28;20055;-79
2021/09/22 13:29:18;;;;;;;11.35;6.15;;;;;;;;;;4983477;28;20098;-79
2021/09/22 13:31:45;;;;;;;16.00;7.00;;;;;;;;;;4973621;28;20046;-78
2021/09/22 13:34:12;;;;;;;10.75;5.57;;;;;;;;;;4962212;28;20058;-79
2021/09/22 13:36:39;;;;;;;12.73;6.78;;;;;;;;;;4964372;28;20447;-79
2021/09/22 13:39:07;;;;;;;11.35;5.90;;;;;;;;;;4958736;28;20031;-79
2021/09/22 13:41:33;;;;;;;11.27;6.05;;;;;;;;;;4944478;29;20126;-79
2021/09/22 13:44:00;;;;;;;10.88;7.57;;;;;;;;;;4953263;29;20118;-78
2021/09/22 13:46:26;;;;;;;13.85;7.07;;;;;;;;;;4961413;29;20093;-79
2021/09/22 13:48:52;;;;;;;10.15;5.72;;;;;;;;;;4961152;28;20039;-78
2021/09/22 13:51:18;;;;;;;11.90;7.07;;;;;;;;;;4966013;28;20481;-79
2021/09/22 13:53:45;;;;;;;15.23;7.47;;;;;;;;;;4965880;28;20074;-79
2021/09/22 13:56:11;;;;;;;21.60;8.60;;;;;;;;;;4965894;28;20035;-79
2021/09/22 13:58:37;;;;;;;13.18;7.72;;;;;;;;;;4970415;28;20070;-79
2021/09/22 14:01:03;;;;;;;18.67;8.38;;;;;;;;;;4969447;28;20036;-78
2021/09/22 14:03:29;;;;;;;25.58;7.57;;;;;;;;;;4968970;28;20035;-79
2021/09/22 14:05:56;;;;;;;13.15;7.07;;;;;;;;;;4967402;29;20070;-79
2021/09/22 14:08:22;;;;;;;12.85;8.07;;;;;;;;;;4965522;28;20086;-78
2021/09/22 14:10:48;;;;;;;18.42;8.15;;;;;;;;;;4965233;28;20469;-78
2021/09/22 14:13:14;;;;;;;11.00;7.13;;;;;;;;;;4965728;29;20047;-78
2021/09/22 14:15:44;;;;;;;12.25;7.45;;;;;;;;;;4962524;28;20043;-78
2021/09/22 14:18:10;;;;;;;10.88;7.97;;;;;;;;;;4953974;28;20036;-77
2021/09/22 14:20:39;;;;;;;12.15;8.00;;;;;;;;;;4951114;29;20440;-78
2021/09/22 14:23:06;;;;;;;13.20;8.02;;;;;;;;;;4963505;28;20130;-77
2021/09/22 14:25:32;;;;;;;12.07;7.97;;;;;;;;;;4960805;28;20043;-78
2021/09/22 14:27:58;;;;;;;13.20;7.45;;;;;;;;;;4942852;29;20453;-78
2021/09/22 14:30:26;;;;;;;10.48;6.75;;;;;;;;;;4942369;28;20039;-76
2021/09/22 14:32:52;;;;;;;11.77;6.65;;;;;;;;;;4949682;28;20044;-77
2021/09/22 14:35:22;;;;;;;10.50;6.85;;;;;;;;;;4960456;28;20038;-78
2021/09/22 14:37:48;;;;;;;8.90;6.22;;;;;;;;;;4958707;29;20035;-77
2021/09/22 14:40:15;;;;;;;11.55;6.10;;;;;;;;;;4958389;28;20047;-78
2021/09/22 14:42:42;;;;;;;8.52;5.93;;;;;;;;;;4962120;28;20095;-79
2021/09/22 14:45:10;;;;;;;11.13;6.18;;;;;;;;;;4961472;28;20065;-78
2021/09/22 14:47:36;;;;;;;11.02;6.32;;;;;;;;;;4963406;28;20058;-78
2021/09/22 14:50:07;;;;;;;13.65;6.65;;;;;;;;;;4957288;28;20413;-78
2021/09/22 14:52:33;;;;;;;9.18;5.95;;;;;;;;;;4958703;29;20058;-78